Impacts TAF Board
For situational awareness. Not to be used for flight planning purposes.
IDs:

KEWR - Newark Intl, NJ, US

Issued at 0238 UTC 18 Jun 2019
Updated at 0333 UTC 18 Jun 2019
Potential Impact None Slight Moderate High
Time<<19/04Z 19/05Z 19/06Z 19/07Z 19/08Z 19/09Z 19/10Z 19/11Z 19/12Z 19/13Z 19/14Z 19/15Z 19/16Z
Type PRVL PRVL
VIS >6 >6
CIG 20 20
Cover OVC OVC
FltCat MVFR MVFR
WX -- --
WDir VRB VRB
WSpd 3 3
WGst -- --
Raw TAF
KEWR 180238Z 1803/1906 VRB04KT P6SM SCT025 SCT035 BKN120
  TEMPO 1803/1805 BKN025
  FM180500 VRB04KT 6SM BR SCT015 SCT025 BKN035
  TEMPO 1805/1808 5SM BR FEW008 BKN015
  FM180800 VRB02KT 3SM BR OVC008
  TEMPO 1808/1812 2SM -SHRA BR BKN006
  FM181600 VRB05KT 5SM -SHRA BR BKN012 OVC030
  FM182100 VRB04KT P6SM BKN025
  FM190200 VRB03KT P6SM OVC020


METAR Board
Radar Display
Forecast Discussion
For situational awareness. Not to be used for flight planning purposes.